sensor_id;sensor_type;location;lat;lon;timestamp;temperature;humidity
53962;DHT22;39868;53.398;6.564;2023-07-22T00:00:59;16.10;79.00
53962;DHT22;39868;53.398;6.564;2023-07-22T00:03:26;16.10;79.00
53962;DHT22;39868;53.398;6.564;2023-07-22T00:06:06;16.10;79.10
53962;DHT22;39868;53.398;6.564;2023-07-22T00:08:35;16.20;79.20
53962;DHT22;39868;53.398;6.564;2023-07-22T00:11:02;16.20;79.20
53962;DHT22;39868;53.398;6.564;2023-07-22T00:13:30;16.20;79.30
53962;DHT22;39868;53.398;6.564;2023-07-22T00:15:58;16.20;79.20
53962;DHT22;39868;53.398;6.564;2023-07-22T00:18:27;16.20;79.20
53962;DHT22;39868;53.398;6.564;2023-07-22T00:20:54;16.20;79.10
53962;DHT22;39868;53.398;6.564;2023-07-22T00:23:22;16.20;79.00
53962;DHT22;39868;53.398;6.564;2023-07-22T00:25:49;16.20;79.00
53962;DHT22;39868;53.398;6.564;2023-07-22T00:28:17;16.20;78.90
53962;DHT22;39868;53.398;6.564;2023-07-22T00:30:45;16.20;78.90
53962;DHT22;39868;53.398;6.564;2023-07-22T00:33:12;16.20;78.80
53962;DHT22;39868;53.398;6.564;2023-07-22T00:35:41;16.20;78.80
53962;DHT22;39868;53.398;6.564;2023-07-22T00:38:08;16.20;78.70
53962;DHT22;39868;53.398;6.564;2023-07-22T00:40:36;16.20;78.70
53962;DHT22;39868;53.398;6.564;2023-07-22T00:43:04;16.20;78.70
53962;DHT22;39868;53.398;6.564;2023-07-22T00:45:34;16.20;78.70
53962;DHT22;39868;53.398;6.564;2023-07-22T00:48:01;16.20;78.70
53962;DHT22;39868;53.398;6.564;2023-07-22T00:50:29;16.20;78.70
53962;DHT22;39868;53.398;6.564;2023-07-22T00:52:56;16.10;78.70
53962;DHT22;39868;53.398;6.564;2023-07-22T00:55:24;16.10;78.70
53962;DHT22;39868;53.398;6.564;2023-07-22T00:57:52;16.10;78.60
53962;DHT22;39868;53.398;6.564;2023-07-22T01:00:19;16.10;78.70
53962;DHT22;39868;53.398;6.564;2023-07-22T01:02:49;16.10;78.70
53962;DHT22;39868;53.398;6.564;2023-07-22T01:05:16;16.10;78.70
53962;DHT22;39868;53.398;6.564;2023-07-22T01:07:44;16.00;78.70
53962;DHT22;39868;53.398;6.564;2023-07-22T01:10:12;16.00;78.70
53962;DHT22;39868;53.398;6.564;2023-07-22T01:12:40;16.00;78.70
53962;DHT22;39868;53.398;6.564;2023-07-22T01:15:07;15.90;78.70
53962;DHT22;39868;53.398;6.564;2023-07-22T01:17:38;15.90;78.70
53962;DHT22;39868;53.398;6.564;2023-07-22T01:20:06;15.90;78.80
53962;DHT22;39868;53.398;6.564;2023-07-22T01:22:33;15.90;78.80
53962;DHT22;39868;53.398;6.564;2023-07-22T01:25:01;15.90;78.80
53962;DHT22;39868;53.398;6.564;2023-07-22T01:27:28;15.90;78.80
53962;DHT22;39868;53.398;6.564;2023-07-22T01:29:56;15.80;78.80
53962;DHT22;39868;53.398;6.564;2023-07-22T01:32:23;15.80;78.80
53962;DHT22;39868;53.398;6.564;2023-07-22T01:34:50;15.80;78.80
53962;DHT22;39868;53.398;6.564;2023-07-22T01:37:18;15.80;78.80
53962;DHT22;39868;53.398;6.564;2023-07-22T01:39:45;15.80;78.90
53962;DHT22;39868;53.398;6.564;2023-07-22T01:42:13;15.80;78.90
53962;DHT22;39868;53.398;6.564;2023-07-22T01:44:40;15.80;78.90
53962;DHT22;39868;53.398;6.564;2023-07-22T01:47:07;15.80;78.90
53962;DHT22;39868;53.398;6.564;2023-07-22T01:49:34;15.70;79.40
53962;DHT22;39868;53.398;6.564;2023-07-22T01:52:01;15.70;78.90
53962;DHT22;39868;53.398;6.564;2023-07-22T01:54:29;15.70;78.90
53962;DHT22;39868;53.398;6.564;2023-07-22T01:56:56;15.70;78.90
53962;DHT22;39868;53.398;6.564;2023-07-22T01:59:25;15.70;78.90
53962;DHT22;39868;53.398;6.564;2023-07-22T02:01:53;15.70;78.90
53962;DHT22;39868;53.398;6.564;2023-07-22T02:04:20;15.70;78.90
53962;DHT22;39868;53.398;6.564;2023-07-22T02:06:48;15.70;78.90
53962;DHT22;39868;53.398;6.564;2023-07-22T02:09:15;15.70;78.90
53962;DHT22;39868;53.398;6.564;2023-07-22T02:11:42;15.70;79.00
53962;DHT22;39868;53.398;6.564;2023-07-22T02:14:10;15.70;79.00
53962;DHT22;39868;53.398;6.564;2023-07-22T02:16:37;15.70;79.00
53962;DHT22;39868;53.398;6.564;2023-07-22T02:19:05;15.70;79.00
53962;DHT22;39868;53.398;6.564;2023-07-22T02:21:39;15.70;79.00
53962;DHT22;39868;53.398;6.564;2023-07-22T02:24:07;15.70;79.00
53962;DHT22;39868;53.398;6.564;2023-07-22T02:26:34;15.70;79.00
53962;DHT22;39868;53.398;6.564;2023-07-22T02:29:02;15.70;79.00
53962;DHT22;39868;53.398;6.564;2023-07-22T02:31:29;15.60;78.90
53962;DHT22;39868;53.398;6.564;2023-07-22T02:33:56;15.70;79.00
53962;DHT22;39868;53.398;6.564;2023-07-22T02:36:24;15.60;79.00
53962;DHT22;39868;53.398;6.564;2023-07-22T02:38:51;15.60;78.90
53962;DHT22;39868;53.398;6.564;2023-07-22T02:41:18;15.60;78.90
53962;DHT22;39868;53.398;6.564;2023-07-22T02:43:46;15.60;79.00
53962;DHT22;39868;53.398;6.564;2023-07-22T02:46:13;15.60;79.00
53962;DHT22;39868;53.398;6.564;2023-07-22T02:48:41;15.60;79.00
53962;DHT22;39868;53.398;6.564;2023-07-22T02:51:08;15.60;79.00
53962;DHT22;39868;53.398;6.564;2023-07-22T02:53:36;15.50;78.90
53962;DHT22;39868;53.398;6.564;2023-07-22T02:56:08;15.50;78.90
53962;DHT22;39868;53.398;6.564;2023-07-22T02:58:35;15.50;78.90
53962;DHT22;39868;53.398;6.564;2023-07-22T03:01:04;15.50;79.00
53962;DHT22;39868;53.398;6.564;2023-07-22T03:03:32;15.50;79.00
53962;DHT22;39868;53.398;6.564;2023-07-22T03:06:00;15.50;78.90
53962;DHT22;39868;53.398;6.564;2023-07-22T03:08:28;15.50;79.00
53962;DHT22;39868;53.398;6.564;2023-07-22T03:10:55;15.50;79.00
53962;DHT22;39868;53.398;6.564;2023-07-22T03:13:22;15.40;78.90
53962;DHT22;39868;53.398;6.564;2023-07-22T03:15:50;15.50;79.00
53962;DHT22;39868;53.398;6.564;2023-07-22T03:18:17;15.40;78.90
53962;DHT22;39868;53.398;6.564;2023-07-22T03:20:44;15.40;78.90
53962;DHT22;39868;53.398;6.564;2023-07-22T03:23:12;15.40;79.00
53962;DHT22;39868;53.398;6.564;2023-07-22T03:25:39;15.40;79.00
53962;DHT22;39868;53.398;6.564;2023-07-22T03:28:06;15.40;79.00
53962;DHT22;39868;53.398;6.564;2023-07-22T03:30:34;15.40;79.00
53962;DHT22;39868;53.398;6.564;2023-07-22T03:33:02;15.30;78.90
53962;DHT22;39868;53.398;6.564;2023-07-22T03:35:29;15.40;79.00
53962;DHT22;39868;53.398;6.564;2023-07-22T03:37:56;15.30;78.90
53962;DHT22;39868;53.398;6.564;2023-07-22T03:40:24;15.30;79.00
53962;DHT22;39868;53.398;6.564;2023-07-22T03:42:56;15.30;79.00
53962;DHT22;39868;53.398;6.564;2023-07-22T03:45:24;15.30;79.00
53962;DHT22;39868;53.398;6.564;2023-07-22T03:47:53;15.30;79.00
53962;DHT22;39868;53.398;6.564;2023-07-22T03:50:21;15.30;79.00
53962;DHT22;39868;53.398;6.564;2023-07-22T03:52:48;15.30;79.00
53962;DHT22;39868;53.398;6.564;2023-07-22T03:55:16;15.30;79.00
53962;DHT22;39868;53.398;6.564;2023-07-22T03:57:43;15.30;79.00
53962;DHT22;39868;53.398;6.564;2023-07-22T04:00:10;15.30;79.00
53962;DHT22;39868;53.398;6.564;2023-07-22T04:02:38;15.30;79.00
53962;DHT22;39868;53.398;6.564;2023-07-22T04:05:06;15.30;79.00
53962;DHT22;39868;53.398;6.564;2023-07-22T04:07:33;15.30;79.10
53962;DHT22;39868;53.398;6.564;2023-07-22T04:10:01;15.30;79.10
53962;DHT22;39868;53.398;6.564;2023-07-22T04:12:28;15.30;79.10
53962;DHT22;39868;53.398;6.564;2023-07-22T04:14:56;15.30;79.10
53962;DHT22;39868;53.398;6.564;2023-07-22T04:17:23;15.30;79.10
53962;DHT22;39868;53.398;6.564;2023-07-22T04:19:51;15.30;79.10
53962;DHT22;39868;53.398;6.564;2023-07-22T04:22:20;15.30;79.10
53962;DHT22;39868;53.398;6.564;2023-07-22T04:24:47;15.30;79.10
53962;DHT22;39868;53.398;6.564;2023-07-22T04:27:19;15.30;79.10
53962;DHT22;39868;53.398;6.564;2023-07-22T04:29:47;15.40;79.20
53962;DHT22;39868;53.398;6.564;2023-07-22T04:32:14;15.40;79.20
53962;DHT22;39868;53.398;6.564;2023-07-22T04:34:41;15.40;79.20
53962;DHT22;39868;53.398;6.564;2023-07-22T04:37:09;15.40;79.30
53962;DHT22;39868;53.398;6.564;2023-07-22T04:39:36;15.40;79.30
53962;DHT22;39868;53.398;6.564;2023-07-22T04:42:04;15.40;79.30
53962;DHT22;39868;53.398;6.564;2023-07-22T04:44:31;15.40;79.30
53962;DHT22;39868;53.398;6.564;2023-07-22T04:46:58;15.50;79.40
53962;DHT22;39868;53.398;6.564;2023-07-22T04:49:26;15.50;79.40
53962;DHT22;39868;53.398;6.564;2023-07-22T04:51:53;15.50;79.40
53962;DHT22;39868;53.398;6.564;2023-07-22T04:54:20;15.60;79.40
53962;DHT22;39868;53.398;6.564;2023-07-22T04:56:48;15.60;79.40
53962;DHT22;39868;53.398;6.564;2023-07-22T04:59:15;15.60;79.40
53962;DHT22;39868;53.398;6.564;2023-07-22T05:01:42;15.70;79.50
53962;DHT22;39868;53.398;6.564;2023-07-22T05:04:10;15.70;79.50
53962;DHT22;39868;53.398;6.564;2023-07-22T05:06:37;15.70;79.60
53962;DHT22;39868;53.398;6.564;2023-07-22T05:09:05;15.80;79.60
53962;DHT22;39868;53.398;6.564;2023-07-22T05:11:32;15.80;79.60
53962;DHT22;39868;53.398;6.564;2023-07-22T05:13:59;15.80;79.60
53962;DHT22;39868;53.398;6.564;2023-07-22T05:16:26;15.90;79.70
53962;DHT22;39868;53.398;6.564;2023-07-22T05:18:54;15.90;79.60
53962;DHT22;39868;53.398;6.564;2023-07-22T05:21:21;15.90;79.60
53962;DHT22;39868;53.398;6.564;2023-07-22T05:23:48;15.90;79.70
53962;DHT22;39868;53.398;6.564;2023-07-22T05:26:16;16.00;79.70
53962;DHT22;39868;53.398;6.564;2023-07-22T05:28:43;16.00;79.70
53962;DHT22;39868;53.398;6.564;2023-07-22T05:31:10;16.10;79.70
53962;DHT22;39868;53.398;6.564;2023-07-22T05:33:38;16.10;79.70
53962;DHT22;39868;53.398;6.564;2023-07-22T05:36:05;16.10;79.70
53962;DHT22;39868;53.398;6.564;2023-07-22T05:38:32;16.20;79.70
53962;DHT22;39868;53.398;6.564;2023-07-22T05:40:59;16.10;79.70
53962;DHT22;39868;53.398;6.564;2023-07-22T05:43:30;16.20;79.70
53962;DHT22;39868;53.398;6.564;2023-07-22T05:45:57;16.20;79.70
53962;DHT22;39868;53.398;6.564;2023-07-22T05:48:24;16.30;79.80
53962;DHT22;39868;53.398;6.564;2023-07-22T05:50:51;16.30;79.80
53962;DHT22;39868;53.398;6.564;2023-07-22T05:53:19;16.30;79.70
53962;DHT22;39868;53.398;6.564;2023-07-22T05:55:46;16.40;79.80
53962;DHT22;39868;53.398;6.564;2023-07-22T05:58:17;16.40;79.80
53962;DHT22;39868;53.398;6.564;2023-07-22T06:00:45;16.50;79.90
53962;DHT22;39868;53.398;6.564;2023-07-22T06:03:13;16.50;79.90
53962;DHT22;39868;53.398;6.564;2023-07-22T06:05:41;16.50;79.90
53962;DHT22;39868;53.398;6.564;2023-07-22T06:08:08;16.60;80.00
53962;DHT22;39868;53.398;6.564;2023-07-22T06:10:35;16.70;80.00
53962;DHT22;39868;53.398;6.564;2023-07-22T06:13:05;16.70;80.10
53962;DHT22;39868;53.398;6.564;2023-07-22T06:15:32;16.80;80.10
53962;DHT22;39868;53.398;6.564;2023-07-22T06:18:00;16.90;80.20
53962;DHT22;39868;53.398;6.564;2023-07-22T06:20:27;16.90;80.20
53962;DHT22;39868;53.398;6.564;2023-07-22T06:22:55;17.00;80.20
53962;DHT22;39868;53.398;6.564;2023-07-22T06:25:22;17.00;80.20
53962;DHT22;39868;53.398;6.564;2023-07-22T06:27:49;17.10;80.20
53962;DHT22;39868;53.398;6.564;2023-07-22T06:30:17;17.20;80.20
53962;DHT22;39868;53.398;6.564;2023-07-22T06:32:44;17.30;80.30
53962;DHT22;39868;53.398;6.564;2023-07-22T06:35:11;17.30;80.30
53962;DHT22;39868;53.398;6.564;2023-07-22T06:37:39;17.40;80.30
53962;DHT22;39868;53.398;6.564;2023-07-22T06:40:07;17.40;80.30
53962;DHT22;39868;53.398;6.564;2023-07-22T06:42:34;17.50;80.30
53962;DHT22;39868;53.398;6.564;2023-07-22T06:45:02;17.60;80.30
53962;DHT22;39868;53.398;6.564;2023-07-22T06:47:29;17.70;80.40
53962;DHT22;39868;53.398;6.564;2023-07-22T06:49:56;17.70;80.40
53962;DHT22;39868;53.398;6.564;2023-07-22T06:52:24;17.80;80.40
53962;DHT22;39868;53.398;6.564;2023-07-22T06:54:51;17.90;80.40
53962;DHT22;39868;53.398;6.564;2023-07-22T06:57:18;17.90;80.40
53962;DHT22;39868;53.398;6.564;2023-07-22T06:59:45;18.00;80.30
53962;DHT22;39868;53.398;6.564;2023-07-22T07:02:13;18.10;80.30
53962;DHT22;39868;53.398;6.564;2023-07-22T07:04:40;18.20;80.30
53962;DHT22;39868;53.398;6.564;2023-07-22T07:07:07;18.20;80.80
53962;DHT22;39868;53.398;6.564;2023-07-22T07:09:34;18.30;80.80
53962;DHT22;39868;53.398;6.564;2023-07-22T07:12:02;18.30;80.20
53962;DHT22;39868;53.398;6.564;2023-07-22T07:14:29;18.40;80.20
53962;DHT22;39868;53.398;6.564;2023-07-22T07:16:57;18.50;80.20
53962;DHT22;39868;53.398;6.564;2023-07-22T07:19:26;18.50;80.10
53962;DHT22;39868;53.398;6.564;2023-07-22T07:21:53;18.50;80.00
53962;DHT22;39868;53.398;6.564;2023-07-22T07:24:20;18.60;80.00
53962;DHT22;39868;53.398;6.564;2023-07-22T07:26:48;18.60;80.00
53962;DHT22;39868;53.398;6.564;2023-07-22T07:29:15;18.70;79.90
53962;DHT22;39868;53.398;6.564;2023-07-22T07:32:02;18.70;79.80
53962;DHT22;39868;53.398;6.564;2023-07-22T07:34:30;18.70;79.80
53962;DHT22;39868;53.398;6.564;2023-07-22T07:37:00;18.70;79.70
53962;DHT22;39868;53.398;6.564;2023-07-22T07:39:27;18.70;79.60
53962;DHT22;39868;53.398;6.564;2023-07-22T07:41:55;18.70;79.60
53962;DHT22;39868;53.398;6.564;2023-07-22T07:44:23;18.80;79.60
53962;DHT22;39868;53.398;6.564;2023-07-22T07:46:50;18.80;79.60
53962;DHT22;39868;53.398;6.564;2023-07-22T07:49:17;18.80;79.60
53962;DHT22;39868;53.398;6.564;2023-07-22T07:51:44;18.80;79.50
53962;DHT22;39868;53.398;6.564;2023-07-22T07:54:12;18.80;79.50
53962;DHT22;39868;53.398;6.564;2023-07-22T07:56:39;18.90;79.60
53962;DHT22;39868;53.398;6.564;2023-07-22T07:59:06;18.90;79.70
53962;DHT22;39868;53.398;6.564;2023-07-22T08:01:35;19.00;79.80
53962;DHT22;39868;53.398;6.564;2023-07-22T08:04:08;19.10;79.80
53962;DHT22;39868;53.398;6.564;2023-07-22T08:06:36;19.10;79.80
53962;DHT22;39868;53.398;6.564;2023-07-22T08:09:04;19.20;79.90
53962;DHT22;39868;53.398;6.564;2023-07-22T08:11:37;19.30;80.00
53962;DHT22;39868;53.398;6.564;2023-07-22T08:14:06;19.30;79.90
53962;DHT22;39868;53.398;6.564;2023-07-22T08:16:34;19.40;79.90
53962;DHT22;39868;53.398;6.564;2023-07-22T08:19:02;19.40;79.80
53962;DHT22;39868;53.398;6.564;2023-07-22T08:21:30;19.50;80.30
53962;DHT22;39868;53.398;6.564;2023-07-22T08:23:57;19.50;79.70
53962;DHT22;39868;53.398;6.564;2023-07-22T08:26:24;19.50;79.60
53962;DHT22;39868;53.398;6.564;2023-07-22T08:28:54;19.60;79.60
53962;DHT22;39868;53.398;6.564;2023-07-22T08:31:21;19.60;79.60
53962;DHT22;39868;53.398;6.564;2023-07-22T08:33:49;19.60;79.50
53962;DHT22;39868;53.398;6.564;2023-07-22T08:36:17;19.60;79.50
53962;DHT22;39868;53.398;6.564;2023-07-22T08:38:45;19.60;79.50
53962;DHT22;39868;53.398;6.564;2023-07-22T08:41:15;19.60;79.50
53962;DHT22;39868;53.398;6.564;2023-07-22T08:43:46;19.60;79.40
53962;DHT22;39868;53.398;6.564;2023-07-22T08:46:16;19.70;79.50
53962;DHT22;39868;53.398;6.564;2023-07-22T08:48:49;19.70;79.50
53962;DHT22;39868;53.398;6.564;2023-07-22T08:51:22;19.70;79.40
53962;DHT22;39868;53.398;6.564;2023-07-22T08:53:52;19.70;79.40
53962;DHT22;39868;53.398;6.564;2023-07-22T08:56:36;19.70;79.50
53962;DHT22;39868;53.398;6.564;2023-07-22T08:59:04;19.70;79.50
53962;DHT22;39868;53.398;6.564;2023-07-22T09:01:34;19.80;79.50
53962;DHT22;39868;53.398;6.564;2023-07-22T09:04:03;19.80;79.50
53962;DHT22;39868;53.398;6.564;2023-07-22T09:06:31;19.90;79.60
53962;DHT22;39868;53.398;6.564;2023-07-22T09:08:59;19.90;79.70
53962;DHT22;39868;53.398;6.564;2023-07-22T09:11:27;20.00;79.70
53962;DHT22;39868;53.398;6.564;2023-07-22T09:13:54;20.00;79.70
53962;DHT22;39868;53.398;6.564;2023-07-22T09:16:23;20.00;79.70
53962;DHT22;39868;53.398;6.564;2023-07-22T09:18:50;20.10;79.60
53962;DHT22;39868;53.398;6.564;2023-07-22T09:21:21;20.10;79.50
53962;DHT22;39868;53.398;6.564;2023-07-22T09:23:48;20.20;79.40
53962;DHT22;39868;53.398;6.564;2023-07-22T09:26:17;20.20;79.40
53962;DHT22;39868;53.398;6.564;2023-07-22T09:28:48;20.20;79.40
53962;DHT22;39868;53.398;6.564;2023-07-22T09:31:16;20.20;79.30
53962;DHT22;39868;53.398;6.564;2023-07-22T09:33:43;20.20;79.30
53962;DHT22;39868;53.398;6.564;2023-07-22T09:36:11;20.20;79.30
53962;DHT22;39868;53.398;6.564;2023-07-22T09:38:39;20.20;79.30
53962;DHT22;39868;53.398;6.564;2023-07-22T09:41:06;20.20;79.20
53962;DHT22;39868;53.398;6.564;2023-07-22T09:43:35;20.20;79.20
53962;DHT22;39868;53.398;6.564;2023-07-22T09:46:07;20.20;79.20
53962;DHT22;39868;53.398;6.564;2023-07-22T09:48:52;20.20;79.20
53962;DHT22;39868;53.398;6.564;2023-07-22T09:51:20;20.20;79.10
53962;DHT22;39868;53.398;6.564;2023-07-22T09:53:51;20.20;79.20
53962;DHT22;39868;53.398;6.564;2023-07-22T09:56:25;20.20;79.10
53962;DHT22;39868;53.398;6.564;2023-07-22T09:58:53;20.20;79.20
53962;DHT22;39868;53.398;6.564;2023-07-22T10:01:22;20.10;79.10
53962;DHT22;39868;53.398;6.564;2023-07-22T10:03:52;20.10;79.10
53962;DHT22;39868;53.398;6.564;2023-07-22T10:06:26;20.10;79.00
53962;DHT22;39868;53.398;6.564;2023-07-22T10:09:12;20.00;78.90
53962;DHT22;39868;53.398;6.564;2023-07-22T10:11:41;19.90;78.60
53962;DHT22;39868;53.398;6.564;2023-07-22T10:14:08;19.80;78.50
53962;DHT22;39868;53.398;6.564;2023-07-22T10:16:36;19.70;78.30
53962;DHT22;39868;53.398;6.564;2023-07-22T10:19:04;19.60;78.30
53962;DHT22;39868;53.398;6.564;2023-07-22T10:21:31;19.50;78.30
53962;DHT22;39868;53.398;6.564;2023-07-22T10:24:00;19.50;78.30
53962;DHT22;39868;53.398;6.564;2023-07-22T10:26:27;19.40;78.40
53962;DHT22;39868;53.398;6.564;2023-07-22T10:29:12;19.30;78.40
53962;DHT22;39868;53.398;6.564;2023-07-22T10:31:40;19.20;78.50
53962;DHT22;39868;53.398;6.564;2023-07-22T10:34:08;19.20;78.50
53962;DHT22;39868;53.398;6.564;2023-07-22T10:36:35;19.10;78.60
53962;DHT22;39868;53.398;6.564;2023-07-22T10:39:03;19.00;78.70
53962;DHT22;39868;53.398;6.564;2023-07-22T10:41:32;19.00;78.80
53962;DHT22;39868;53.398;6.564;2023-07-22T10:44:00;18.90;78.80
53962;DHT22;39868;53.398;6.564;2023-07-22T10:46:35;18.90;78.90
53962;DHT22;39868;53.398;6.564;2023-07-22T10:49:12;18.80;79.00
53962;DHT22;39868;53.398;6.564;2023-07-22T10:51:40;18.80;79.10
53962;DHT22;39868;53.398;6.564;2023-07-22T10:54:11;18.80;79.20
53962;DHT22;39868;53.398;6.564;2023-07-22T10:56:40;18.80;79.20
53962;DHT22;39868;53.398;6.564;2023-07-22T10:59:09;18.70;79.20
53962;DHT22;39868;53.398;6.564;2023-07-22T11:01:37;18.70;79.30
53962;DHT22;39868;53.398;6.564;2023-07-22T11:06:35;18.70;79.50
53962;DHT22;39868;53.398;6.564;2023-07-22T11:09:03;18.70;79.50
53962;DHT22;39868;53.398;6.564;2023-07-22T11:11:38;18.70;79.60
53962;DHT22;39868;53.398;6.564;2023-07-22T11:14:13;18.60;79.60
53962;DHT22;39868;53.398;6.564;2023-07-22T11:16:41;18.60;79.70
53962;DHT22;39868;53.398;6.564;2023-07-22T11:19:09;18.70;79.80
53962;DHT22;39868;53.398;6.564;2023-07-22T11:21:36;18.70;79.80
53962;DHT22;39868;53.398;6.564;2023-07-22T11:24:04;18.70;79.90
53962;DHT22;39868;53.398;6.564;2023-07-22T11:26:31;18.70;79.90
53962;DHT22;39868;53.398;6.564;2023-07-22T11:29:01;18.70;80.00
53962;DHT22;39868;53.398;6.564;2023-07-22T11:31:39;18.70;80.00
53962;DHT22;39868;53.398;6.564;2023-07-22T11:34:09;18.70;80.10
53962;DHT22;39868;53.398;6.564;2023-07-22T11:36:37;18.70;80.20
53962;DHT22;39868;53.398;6.564;2023-07-22T11:39:05;18.70;80.30
53962;DHT22;39868;53.398;6.564;2023-07-22T11:41:33;18.70;80.30
53962;DHT22;39868;53.398;6.564;2023-07-22T11:44:01;18.80;80.50
53962;DHT22;39868;53.398;6.564;2023-07-22T11:46:29;18.80;80.50
53962;DHT22;39868;53.398;6.564;2023-07-22T11:48:56;18.90;81.30
53962;DHT22;39868;53.398;6.564;2023-07-22T11:51:24;18.90;80.70
53962;DHT22;39868;53.398;6.564;2023-07-22T11:53:53;19.00;80.80
53962;DHT22;39868;53.398;6.564;2023-07-22T11:56:21;19.00;80.80
53962;DHT22;39868;53.398;6.564;2023-07-22T11:58:49;19.00;80.80
53962;DHT22;39868;53.398;6.564;2023-07-22T12:01:17;19.10;80.80
53962;DHT22;39868;53.398;6.564;2023-07-22T12:03:44;19.10;80.80
53962;DHT22;39868;53.398;6.564;2023-07-22T12:06:13;19.10;80.80
53962;DHT22;39868;53.398;6.564;2023-07-22T12:08:48;19.20;80.90
53962;DHT22;39868;53.398;6.564;2023-07-22T12:11:19;19.20;80.80
53962;DHT22;39868;53.398;6.564;2023-07-22T12:13:46;19.20;80.80
53962;DHT22;39868;53.398;6.564;2023-07-22T12:16:21;19.30;80.90
53962;DHT22;39868;53.398;6.564;2023-07-22T12:18:49;19.30;80.90
53962;DHT22;39868;53.398;6.564;2023-07-22T12:21:16;19.30;80.90
53962;DHT22;39868;53.398;6.564;2023-07-22T12:23:45;19.40;80.90
53962;DHT22;39868;53.398;6.564;2023-07-22T12:26:12;19.40;80.90
53962;DHT22;39868;53.398;6.564;2023-07-22T12:28:40;19.40;80.80
53962;DHT22;39868;53.398;6.564;2023-07-22T12:31:07;19.50;80.90
53962;DHT22;39868;53.398;6.564;2023-07-22T12:33:34;19.50;80.90
53962;DHT22;39868;53.398;6.564;2023-07-22T12:36:02;19.50;80.90
53962;DHT22;39868;53.398;6.564;2023-07-22T12:38:30;19.50;81.00
53962;DHT22;39868;53.398;6.564;2023-07-22T12:40:58;19.60;81.00
53962;DHT22;39868;53.398;6.564;2023-07-22T12:43:25;19.60;80.90
53962;DHT22;39868;53.398;6.564;2023-07-22T12:45:52;19.60;80.90
53962;DHT22;39868;53.398;6.564;2023-07-22T12:48:20;19.60;80.90
53962;DHT22;39868;53.398;6.564;2023-07-22T12:50:47;19.60;80.90
53962;DHT22;39868;53.398;6.564;2023-07-22T12:53:14;19.60;80.80
53962;DHT22;39868;53.398;6.564;2023-07-22T12:55:41;19.60;80.80
53962;DHT22;39868;53.398;6.564;2023-07-22T12:58:09;19.60;80.80
53962;DHT22;39868;53.398;6.564;2023-07-22T13:00:36;19.60;80.80
53962;DHT22;39868;53.398;6.564;2023-07-22T13:03:04;19.60;80.80
53962;DHT22;39868;53.398;6.564;2023-07-22T13:05:31;19.60;80.80
53962;DHT22;39868;53.398;6.564;2023-07-22T13:07:58;19.60;80.80
53962;DHT22;39868;53.398;6.564;2023-07-22T13:10:28;19.60;80.80
53962;DHT22;39868;53.398;6.564;2023-07-22T13:12:56;19.60;80.80
53962;DHT22;39868;53.398;6.564;2023-07-22T13:15:23;19.60;80.90
53962;DHT22;39868;53.398;6.564;2023-07-22T13:17:50;19.60;80.90
53962;DHT22;39868;53.398;6.564;2023-07-22T13:20:18;19.70;81.00
53962;DHT22;39868;53.398;6.564;2023-07-22T13:22:45;19.70;81.10
53962;DHT22;39868;53.398;6.564;2023-07-22T13:25:12;19.70;81.10
53962;DHT22;39868;53.398;6.564;2023-07-22T13:27:40;19.80;81.30
53962;DHT22;39868;53.398;6.564;2023-07-22T13:30:07;19.80;81.30
53962;DHT22;39868;53.398;6.564;2023-07-22T13:32:35;19.80;81.20
53962;DHT22;39868;53.398;6.564;2023-07-22T13:35:06;19.90;81.20
53962;DHT22;39868;53.398;6.564;2023-07-22T13:37:33;19.90;81.20
53962;DHT22;39868;53.398;6.564;2023-07-22T13:40:00;19.90;81.20
53962;DHT22;39868;53.398;6.564;2023-07-22T13:42:28;19.90;81.20
53962;DHT22;39868;53.398;6.564;2023-07-22T13:44:56;19.90;81.10
53962;DHT22;39868;53.398;6.564;2023-07-22T13:47:23;19.90;81.00
53962;DHT22;39868;53.398;6.564;2023-07-22T13:49:50;19.90;81.00
53962;DHT22;39868;53.398;6.564;2023-07-22T13:52:18;19.90;81.00
53962;DHT22;39868;53.398;6.564;2023-07-22T13:54:45;19.90;81.00
53962;DHT22;39868;53.398;6.564;2023-07-22T13:57:12;19.80;80.90
53962;DHT22;39868;53.398;6.564;2023-07-22T13:59:39;19.80;80.90
53962;DHT22;39868;53.398;6.564;2023-07-22T14:02:07;19.80;81.00
53962;DHT22;39868;53.398;6.564;2023-07-22T14:04:34;19.80;81.00
53962;DHT22;39868;53.398;6.564;2023-07-22T14:07:01;19.70;81.00
53962;DHT22;39868;53.398;6.564;2023-07-22T14:09:29;19.70;81.00
53962;DHT22;39868;53.398;6.564;2023-07-22T14:11:56;19.70;81.30
53962;DHT22;39868;53.398;6.564;2023-07-22T14:14:23;19.60;81.10
53962;DHT22;39868;53.398;6.564;2023-07-22T14:16:55;19.50;81.00
53962;DHT22;39868;53.398;6.564;2023-07-22T14:19:23;19.40;80.90
53962;DHT22;39868;53.398;6.564;2023-07-22T14:21:51;19.30;80.90
53962;DHT22;39868;53.398;6.564;2023-07-22T14:24:18;19.30;80.90
53962;DHT22;39868;53.398;6.564;2023-07-22T14:26:46;19.20;81.00
53962;DHT22;39868;53.398;6.564;2023-07-22T14:29:14;19.10;81.30
53962;DHT22;39868;53.398;6.564;2023-07-22T14:31:42;19.00;81.10
53962;DHT22;39868;53.398;6.564;2023-07-22T14:34:09;19.00;81.30
53962;DHT22;39868;53.398;6.564;2023-07-22T14:36:36;18.90;81.30
53962;DHT22;39868;53.398;6.564;2023-07-22T14:39:04;18.90;82.00
53962;DHT22;39868;53.398;6.564;2023-07-22T14:41:31;18.80;81.50
53962;DHT22;39868;53.398;6.564;2023-07-22T14:43:58;18.80;81.60
53962;DHT22;39868;53.398;6.564;2023-07-22T14:46:26;18.70;81.70
53962;DHT22;39868;53.398;6.564;2023-07-22T14:48:54;18.70;81.70
53962;DHT22;39868;53.398;6.564;2023-07-22T14:51:21;18.70;81.90
53962;DHT22;39868;53.398;6.564;2023-07-22T14:53:49;18.70;82.10
53962;DHT22;39868;53.398;6.564;2023-07-22T14:56:17;18.60;82.10
53962;DHT22;39868;53.398;6.564;2023-07-22T14:58:44;18.60;82.20
53962;DHT22;39868;53.398;6.564;2023-07-22T15:01:11;18.60;82.90
53962;DHT22;39868;53.398;6.564;2023-07-22T15:03:39;18.60;82.40
53962;DHT22;39868;53.398;6.564;2023-07-22T15:06:07;18.60;82.50
53962;DHT22;39868;53.398;6.564;2023-07-22T15:08:35;18.60;82.60
53962;DHT22;39868;53.398;6.564;2023-07-22T15:11:02;18.60;82.60
53962;DHT22;39868;53.398;6.564;2023-07-22T15:13:29;18.60;82.70
53962;DHT22;39868;53.398;6.564;2023-07-22T15:15:56;18.70;82.80
53962;DHT22;39868;53.398;6.564;2023-07-22T15:18:24;18.60;82.80
53962;DHT22;39868;53.398;6.564;2023-07-22T15:20:51;18.70;83.00
53962;DHT22;39868;53.398;6.564;2023-07-22T15:23:19;18.70;83.10
53962;DHT22;39868;53.398;6.564;2023-07-22T15:25:50;18.70;83.10
53962;DHT22;39868;53.398;6.564;2023-07-22T15:28:18;18.80;83.10
53962;DHT22;39868;53.398;6.564;2023-07-22T15:30:46;18.80;83.10
53962;DHT22;39868;53.398;6.564;2023-07-22T15:33:13;18.80;83.10
53962;DHT22;39868;53.398;6.564;2023-07-22T15:35:41;18.80;83.20
53962;DHT22;39868;53.398;6.564;2023-07-22T15:38:08;18.90;83.30